createdAt,value
2022-10-31T00:00:43.817Z,98453.03
2022-10-31T00:03:46.813Z,98448.47
2022-10-31T00:06:49.551Z,98443.94
2022-10-31T00:09:52.368Z,98440.94
2022-10-31T00:12:56.780Z,98434.63
2022-10-31T00:15:59.782Z,98435.63
2022-10-31T00:19:03.364Z,98431.16
2022-10-31T00:22:06.252Z,98437.31
2022-10-31T00:25:09.435Z,98431.16
2022-10-31T00:28:14.049Z,98427.19
2022-10-31T00:31:17.025Z,98431.69
2022-10-31T00:34:19.781Z,98426.81
2022-10-31T00:37:22.567Z,98424.50
2022-10-31T00:40:25.349Z,98412.84
2022-10-31T00:43:29.642Z,98411.50
2022-10-31T00:46:32.482Z,98401.66
2022-10-31T00:49:35.260Z,98398.34
2022-10-31T00:52:38.016Z,98393.84
2022-10-31T00:55:40.810Z,98391.84
2022-10-31T00:58:44.972Z,98398.34
2022-10-31T01:01:47.851Z,98401.34
2022-10-31T01:04:50.846Z,98405.34
2022-10-31T01:07:53.614Z,98408.00
2022-10-31T01:11:03.398Z,98403.50
2022-10-31T01:14:07.497Z,98409.97
2022-10-31T01:17:10.253Z,98399.66
2022-10-31T01:20:14.521Z,98397.53
2022-10-31T01:23:17.286Z,98395.69
2022-10-31T01:26:21.567Z,98399.66
2022-10-31T01:29:25.751Z,98397.69
2022-10-31T01:32:29.898Z,98389.19
2022-10-31T01:35:32.717Z,98397.19
2022-10-31T01:38:35.478Z,98392.69
2022-10-31T01:41:39.823Z,98385.19
2022-10-31T01:45:03.123Z,98387.72
2022-10-31T01:48:05.944Z,98392.69
2022-10-31T01:51:10.921Z,98399.72
2022-10-31T01:54:17.753Z,98404.72
2022-10-31T01:57:21.999Z,98406.56
2022-10-31T02:00:26.210Z,98421.06
2022-10-31T02:03:30.172Z,98454.72
2022-10-31T02:06:37.111Z,98462.41
2022-10-31T02:09:40.312Z,98467.09
2022-10-31T02:12:43.326Z,98473.44
2022-10-31T02:15:49.276Z,98478.91
2022-10-31T02:18:52.090Z,98478.72
2022-10-31T02:21:58.948Z,98476.75
2022-10-31T02:25:08.804Z,98477.56
2022-10-31T02:28:26.235Z,98476.75
2022-10-31T02:31:35.191Z,98473.06
2022-10-31T02:34:39.955Z,98470.72
2022-10-31T02:37:45.761Z,98474.75
2022-10-31T02:40:53.186Z,98461.91
2022-10-31T02:44:00.423Z,98456.75
2022-10-31T02:47:07.429Z,98471.41
2022-10-31T02:50:12.983Z,98471.25
2022-10-31T02:53:16.264Z,98461.06
2022-10-31T02:56:20.496Z,98453.25
2022-10-31T02:59:24.211Z,98470.72
2022-10-31T03:02:46.163Z,98457.09
2022-10-31T03:05:55.911Z,98462.06
2022-10-31T03:09:04.685Z,98464.09
2022-10-31T03:12:10.249Z,98445.41
2022-10-31T03:15:16.406Z,98443.63
2022-10-31T03:18:23.513Z,98448.78
2022-10-31T03:21:28.148Z,98465.59
2022-10-31T03:24:32.822Z,98471.94
2022-10-31T03:27:37.771Z,98470.56
2022-10-31T03:30:42.238Z,98465.78
2022-10-31T03:33:47.950Z,98476.44
2022-10-31T03:36:54.264Z,98476.44
2022-10-31T03:39:58.015Z,98484.28
2022-10-31T03:43:03.223Z,98491.75
2022-10-31T03:46:06.768Z,98503.78
2022-10-31T03:49:11.098Z,98510.75
2022-10-31T03:52:20.402Z,98511.78
2022-10-31T03:55:27.630Z,98515.09
2022-10-31T03:58:33.545Z,98526.41
2022-10-31T04:01:39.491Z,98530.09
2022-10-31T04:04:45.521Z,98521.94
2022-10-31T04:07:49.877Z,98530.75
2022-10-31T04:10:53.512Z,98520.44
2022-10-31T04:13:57.113Z,98536.09
2022-10-31T04:16:59.899Z,98545.78
2022-10-31T04:20:04.264Z,98552.44
2022-10-31T04:23:11.019Z,98541.28
2022-10-31T04:26:16.458Z,98546.09
2022-10-31T04:29:19.367Z,98548.25
2022-10-31T04:32:22.106Z,98554.75
2022-10-31T04:35:26.317Z,98554.59
2022-10-31T04:38:29.113Z,98560.25
2022-10-31T04:41:31.967Z,98575.91
2022-10-31T04:44:34.731Z,98582.41
2022-10-31T04:47:37.538Z,98593.75
2022-10-31T04:50:41.666Z,98594.09
2022-10-31T04:53:44.419Z,98596.91
2022-10-31T04:56:47.188Z,98600.25
2022-10-31T04:59:49.988Z,98605.41
2022-10-31T05:02:53.938Z,98606.75
2022-10-31T05:05:58.096Z,98615.56
2022-10-31T05:09:00.915Z,98619.91
2022-10-31T05:12:03.701Z,98620.56
2022-10-31T05:15:07.404Z,98628.06
2022-10-31T05:18:10.205Z,98637.72
2022-10-31T05:21:14.347Z,98643.06
2022-10-31T05:24:17.111Z,98648.22
2022-10-31T05:27:19.862Z,98643.72
2022-10-31T05:30:24.242Z,98645.72
2022-10-31T05:33:26.953Z,98633.06
2022-10-31T05:36:31.158Z,98643.06
2022-10-31T05:39:33.861Z,98649.03
2022-10-31T05:42:36.701Z,98645.88
2022-10-31T05:45:39.468Z,98653.03
2022-10-31T05:48:42.255Z,98657.03
2022-10-31T05:51:46.416Z,98660.72
2022-10-31T05:54:49.130Z,98670.00
2022-10-31T05:57:51.955Z,98662.19
2022-10-31T06:00:55.874Z,98664.69
2022-10-31T06:03:59.068Z,98669.53
2022-10-31T06:07:03.230Z,98660.00
2022-10-31T08:51:39.255Z,98765.53
2022-10-31T08:54:42.074Z,98761.91
2022-10-31T08:57:44.860Z,98784.63
2022-10-31T09:00:48.414Z,98774.66
2022-10-31T09:03:51.280Z,98772.94
2022-10-31T09:10:19.067Z,98768.91
2022-10-31T09:13:25.123Z,98779.22
2022-10-31T09:16:30.128Z,98793.91
2022-10-31T09:19:32.948Z,98778.34
2022-10-31T09:22:37.084Z,98778.34
2022-10-31T09:25:40.090Z,98771.38
2022-10-31T09:28:42.834Z,98780.19
2022-10-31T09:31:45.644Z,98772.50
2022-10-31T09:34:48.391Z,98791.00
2022-10-31T09:37:57.494Z,98800.66
2022-10-31T09:41:07.526Z,98792.66
2022-10-31T09:44:16.369Z,98799.44
2022-10-31T09:47:23.694Z,98807.94
2022-10-31T09:50:28.345Z,98802.31
2022-10-31T09:53:37.036Z,98808.47
2022-10-31T09:56:40.177Z,98808.38
2022-10-31T09:59:44.110Z,98810.91
2022-10-31T10:02:48.937Z,98806.56
2022-10-31T10:05:55.575Z,98809.44
2022-10-31T10:08:59.773Z,98811.59
2022-10-31T10:12:08.316Z,98818.56
2022-10-31T10:15:24.450Z,98815.47
2022-10-31T10:18:34.714Z,98806.75
2022-10-31T10:21:43.467Z,98821.00
2022-10-31T10:24:55.912Z,98822.44
2022-10-31T10:28:04.290Z,98819.25
2022-10-31T10:31:09.327Z,98834.59
2022-10-31T10:34:17.448Z,98843.66
2022-10-31T10:37:24.855Z,98844.19
2022-10-31T10:40:29.736Z,98849.91
2022-10-31T10:43:35.318Z,98862.84
2022-10-31T10:47:00.517Z,98868.16
2022-10-31T10:50:07.170Z,98877.41
2022-10-31T10:53:22.164Z,98871.94
2022-10-31T10:56:32.806Z,98885.78
2022-10-31T10:59:36.723Z,98871.63
2022-10-31T11:02:39.538Z,98882.81
2022-10-31T11:05:45.993Z,98881.28
2022-10-31T11:08:48.812Z,98891.94
2022-10-31T11:11:53.448Z,98902.41
2022-10-31T20:25:37.322Z,99469.25
2022-10-31T20:28:43.295Z,99471.84
2022-10-31T20:31:47.149Z,99469.94
2022-10-31T20:34:49.878Z,99467.69
2022-10-31T20:37:52.695Z,99461.00
2022-10-31T20:41:00.197Z,99470.72
2022-10-31T20:44:02.895Z,99466.44
2022-10-31T20:47:06.717Z,99469.59
2022-10-31T20:50:09.728Z,99467.34
2022-10-31T20:53:12.533Z,99474.38
2022-10-31T20:56:17.633Z,99477.03
2022-10-31T20:59:20.378Z,99470.88
2022-10-31T21:02:23.284Z,99475.16
2022-10-31T21:05:26.147Z,99472.06
2022-10-31T21:08:30.177Z,99475.31
2022-10-31T21:11:34.309Z,99475.63
2022-10-31T21:14:37.764Z,99475.06
2022-10-31T21:17:41.051Z,99477.34
2022-10-31T21:20:44.793Z,99487.28
2022-10-31T21:23:47.687Z,99482.94
2022-10-31T21:26:53.004Z,99472.84
2022-10-31T21:29:55.850Z,99475.66
2022-10-31T21:32:58.567Z,99478.63
2022-10-31T21:36:01.287Z,99478.19
2022-10-31T21:39:04.725Z,99482.41
2022-10-31T21:42:08.837Z,99482.84
2022-10-31T21:45:11.553Z,99483.38
2022-10-31T21:48:14.260Z,99491.09
2022-10-31T21:51:17.812Z,99483.81
2022-10-31T21:54:30.359Z,99486.88
2022-10-31T21:57:34.588Z,99492.75
2022-10-31T22:00:37.694Z,99490.09
2022-10-31T22:03:41.406Z,99482.50
2022-10-31T22:06:44.189Z,99491.75
2022-10-31T22:09:47.483Z,99487.56
2022-10-31T22:12:51.656Z,99494.13
2022-10-31T22:15:54.382Z,99495.69
2022-10-31T22:18:58.114Z,99491.09
2022-10-31T22:22:00.878Z,99491.09
2022-10-31T22:25:03.586Z,99489.69
2022-10-31T22:28:08.114Z,99494.03
2022-10-31T22:34:16.155Z,99496.44
2022-10-31T22:37:19.949Z,99487.59
2022-10-31T22:40:22.858Z,99493.19
2022-10-31T22:43:27.209Z,99497.97
2022-10-31T22:46:30.823Z,99498.97
2022-10-31T22:49:33.567Z,99500.91
2022-10-31T22:52:36.337Z,99493.06
2022-10-31T22:55:39.169Z,99496.13
2022-10-31T22:58:43.351Z,99501.75
2022-10-31T23:01:46.712Z,99486.47
2022-10-31T23:04:49.620Z,99499.94
2022-10-31T23:07:52.432Z,99497.13
2022-10-31T23:10:55.399Z,99500.78
2022-10-31T23:14:13.996Z,99506.09
2022-10-31T23:17:18.704Z,99499.94
2022-10-31T23:20:21.500Z,99503.28
2022-10-31T23:23:24.254Z,99502.03
2022-10-31T23:26:44.194Z,99499.66
2022-10-31T23:29:49.228Z,99505.38
2022-10-31T23:32:51.970Z,99496.13
2022-10-31T23:35:54.713Z,99504.09
2022-10-31T23:38:57.442Z,99500.72
2022-10-31T23:42:00.173Z,99502.22
2022-10-31T23:45:04.427Z,99506.03
2022-10-31T23:48:07.445Z,99499.28
2022-10-31T23:51:10.153Z,99502.31
2022-10-31T23:54:13.170Z,99502.31
2022-10-31T23:57:16.638Z,99496.41
